Time;durP1;ratioP1;P1;durP2;ratioP2;P2;SDS_P1;SDS_P2;PMS_P1;PMS_P2;Temp;Humidity;BMP_temperature;BMP_pressure;BME280_temperature;BME280_humidity;BME280_pressure;Samples;Min_cycle;Max_cycle;Signal;HPM_P1;HPM_P2
2021/06/24 00:01:53;;;;;;;2.90;2.67;;;19.50;99.90;;;;;;5052794;28;20414;-57
2021/06/24 00:04:18;;;;;;;3.00;2.77;;;19.50;99.90;;;;;;5051732;28;20175;-58
2021/06/24 00:06:44;;;;;;;3.20;2.70;;;19.40;99.90;;;;;;5051775;28;20210;-58
2021/06/24 00:09:10;;;;;;;2.70;2.23;;;19.30;99.90;;;;;;5049678;28;20242;-56
2021/06/24 00:11:36;;;;;;;2.63;2.40;;;19.30;99.90;;;;;;5050730;28;20190;-55
2021/06/24 00:14:02;;;;;;;2.47;2.27;;;19.40;99.90;;;;;;5052436;28;20961;-54
2021/06/24 00:16:29;;;;;;;2.10;2.00;;;19.40;99.90;;;;;;5051751;28;20178;-56
2021/06/24 00:18:55;;;;;;;3.00;2.80;;;19.30;99.90;;;;;;5052781;28;20785;-57
2021/06/24 00:21:22;;;;;;;2.57;2.37;;;19.40;99.90;;;;;;5051643;28;20450;-58
2021/06/24 00:23:47;;;;;;;3.47;2.70;;;19.50;99.90;;;;;;5052699;28;20410;-58
2021/06/24 00:26:13;;;;;;;5.43;2.97;;;19.40;99.90;;;;;;5052257;28;20916;-58
2021/06/24 00:28:39;;;;;;;2.90;2.60;;;19.50;99.90;;;;;;5052603;28;20167;-56
2021/06/24 00:31:05;;;;;;;2.60;2.40;;;19.40;99.90;;;;;;5052746;28;20167;-58
2021/06/24 00:33:30;;;;;;;2.40;2.20;;;19.40;99.90;;;;;;5053426;28;20565;-59
2021/06/24 00:35:56;;;;;;;2.50;2.27;;;19.40;99.90;;;;;;5056655;28;20409;-55
2021/06/24 00:38:22;;;;;;;4.30;2.80;;;19.40;99.90;;;;;;5055913;28;20193;-56
2021/06/24 00:40:48;;;;;;;3.43;3.13;;;19.40;99.90;;;;;;5056116;28;20456;-57
2021/06/24 00:43:18;;;;;;;3.73;3.07;;;19.30;99.90;;;;;;5056313;28;20965;-56
2021/06/24 00:45:44;;;;;;;3.60;3.30;;;19.30;99.90;;;;;;5056184;28;20185;-56
2021/06/24 00:48:10;;;;;;;3.83;3.47;;;19.30;99.90;;;;;;5056158;28;20832;-56
2021/06/24 00:50:38;;;;;;;3.80;3.50;;;19.40;99.90;;;;;;5053783;28;20526;-58
2021/06/24 00:53:04;;;;;;;4.30;4.00;;;19.50;99.90;;;;;;5055521;28;20451;-59
2021/06/24 00:55:40;;;;;;;4.60;4.20;;;19.50;99.90;;;;;;5055534;28;20405;-57
2021/06/24 00:58:12;;;;;;;3.90;3.60;;;19.50;99.90;;;;;;5055996;28;20186;-57
2021/06/24 01:00:40;;;;;;;3.60;3.40;;;19.60;99.90;;;;;;5056170;28;20381;-57
2021/06/24 01:03:05;;;;;;;7.23;4.47;;;19.60;99.90;;;;;;5056070;28;20858;-58
2021/06/24 01:05:31;;;;;;;5.23;4.80;;;19.70;99.90;;;;;;5055616;28;20429;-54
2021/06/24 01:07:57;;;;;;;5.17;4.77;;;19.70;99.90;;;;;;5055103;28;20202;-57
2021/06/24 01:10:23;;;;;;;4.20;3.80;;;19.80;99.90;;;;;;5055412;28;20171;-57
2021/06/24 01:12:50;;;;;;;5.30;4.90;;;19.70;99.90;;;;;;5055476;28;20289;-57
2021/06/24 01:15:16;;;;;;;5.47;4.97;;;19.70;99.90;;;;;;5055497;28;20244;-57
2021/06/24 01:17:42;;;;;;;4.97;4.57;;;19.70;99.90;;;;;;5055336;28;20497;-58
2021/06/24 01:20:08;;;;;;;5.67;4.97;;;19.60;99.90;;;;;;5055372;28;20814;-58
2021/06/24 01:22:34;;;;;;;5.40;4.90;;;19.60;99.90;;;;;;5057278;28;20547;-58
2021/06/24 01:24:59;;;;;;;5.20;4.70;;;19.60;99.90;;;;;;5055052;28;20401;-58
2021/06/24 01:27:25;;;;;;;4.17;3.87;;;19.70;99.90;;;;;;5055209;28;20248;-56
2021/06/24 01:29:51;;;;;;;4.90;4.50;;;19.70;99.90;;;;;;5055228;28;20162;-55
2021/06/24 01:32:16;;;;;;;5.23;4.70;;;19.70;99.90;;;;;;5055319;28;20189;-58
2021/06/24 01:34:42;;;;;;;4.70;4.30;;;19.80;99.90;;;;;;5055017;28;20194;-57
2021/06/24 01:37:08;;;;;;;4.60;4.30;;;19.80;99.90;;;;;;5055498;28;20437;-58
2021/06/24 01:39:34;;;;;;;6.10;5.50;;;19.80;99.90;;;;;;5054768;28;20193;-57
2021/06/24 01:42:00;;;;;;;5.50;4.80;;;19.70;99.90;;;;;;5054929;28;20225;-56
2021/06/24 01:44:36;;;;;;;5.27;4.77;;;19.50;99.90;;;;;;5054458;28;20190;-56
2021/06/24 01:47:04;;;;;;;5.20;4.70;;;19.40;99.90;;;;;;5054526;28;20421;-58
2021/06/24 01:49:30;;;;;;;4.17;3.60;;;19.30;99.90;;;;;;5054895;28;20413;-58
2021/06/24 01:51:56;;;;;;;5.97;5.27;;;19.20;99.90;;;;;;5054480;28;20933;-55
2021/06/24 01:54:22;;;;;;;5.23;4.83;;;19.20;99.90;;;;;;5054921;28;20601;-54
2021/06/24 01:56:49;;;;;;;5.00;4.60;;;19.00;99.90;;;;;;5055257;28;20428;-58
2021/06/24 01:59:15;;;;;;;7.90;5.47;;;19.10;99.90;;;;;;5055053;28;20894;-57
2021/06/24 02:01:41;;;;;;;5.40;4.90;;;19.10;99.90;;;;;;5054695;28;20408;-57
2021/06/24 02:04:08;;;;;;;5.30;4.90;;;19.10;99.90;;;;;;5054623;28;20408;-54
2021/06/24 02:06:33;;;;;;;5.73;5.33;;;19.10;99.90;;;;;;5052972;28;20440;-56
2021/06/24 02:08:59;;;;;;;4.93;4.53;;;19.00;99.90;;;;;;5054835;28;20405;-58
2021/06/24 02:11:25;;;;;;;4.43;4.03;;;19.10;99.90;;;;;;5054551;28;20165;-57
2021/06/24 02:13:51;;;;;;;4.60;4.20;;;19.10;99.90;;;;;;5054599;28;20445;-57
2021/06/24 02:16:16;;;;;;;4.57;4.27;;;19.10;99.90;;;;;;5054791;28;20163;-56
2021/06/24 02:18:43;;;;;;;5.50;3.80;;;19.20;99.90;;;;;;5054334;28;20162;-56
2021/06/24 02:21:08;;;;;;;4.43;4.07;;;19.20;99.90;;;;;;5054179;28;20193;-57
2021/06/24 02:23:34;;;;;;;5.23;4.60;;;19.20;99.90;;;;;;5053979;28;20905;-56
2021/06/24 02:25:59;;;;;;;4.60;4.20;;;19.20;99.90;;;;;;5054375;28;20171;-53
2021/06/24 02:28:25;;;;;;;4.83;4.13;;;19.20;99.90;;;;;;5054085;28;20195;-58
2021/06/24 02:30:51;;;;;;;5.00;4.30;;;19.20;99.90;;;;;;5054264;28;20217;-58
2021/06/24 02:33:18;;;;;;;5.77;4.10;;;19.20;99.90;;;;;;5053899;28;20194;-57
2021/06/24 02:35:55;;;;;;;4.27;3.93;;;19.20;99.90;;;;;;5054222;28;20167;-55
2021/06/24 02:38:21;;;;;;;4.60;4.20;;;19.30;99.90;;;;;;5053297;28;20420;-57
2021/06/24 02:40:47;;;;;;;3.90;3.60;;;19.20;99.90;;;;;;5053887;28;20458;-57
2021/06/24 02:43:13;;;;;;;4.10;3.80;;;19.10;99.90;;;;;;5053704;28;20716;-58
2021/06/24 02:45:44;;;;;;;3.70;3.40;;;19.00;99.90;;;;;;5053935;28;20496;-58
2021/06/24 02:48:09;;;;;;;5.43;3.87;;;19.00;99.90;;;;;;5053937;28;20195;-58
2021/06/24 02:50:35;;;;;;;4.17;3.77;;;18.80;99.90;;;;;;5053623;28;20412;-58
2021/06/24 02:53:01;;;;;;;4.47;3.53;;;18.80;99.90;;;;;;5053332;28;20730;-57
2021/06/24 02:55:30;;;;;;;3.50;3.23;;;18.80;99.90;;;;;;5053490;28;20904;-57
2021/06/24 02:58:00;;;;;;;4.90;4.50;;;18.90;99.90;;;;;;5053396;28;20525;-59
2021/06/24 03:00:27;;;;;;;4.20;3.80;;;18.80;99.90;;;;;;5053729;28;20425;-57
2021/06/24 03:02:53;;;;;;;4.23;3.83;;;18.80;99.90;;;;;;5053573;28;20413;-52
2021/06/24 03:05:20;;;;;;;3.60;3.30;;;18.80;99.90;;;;;;5052136;28;20970;-57
2021/06/24 03:07:46;;;;;;;3.50;3.20;;;18.90;99.90;;;;;;5052793;23;20521;-49
2021/06/24 03:10:12;;;;;;;3.73;3.33;;;18.90;99.90;;;;;;5035920;28;20411;-53
2021/06/24 03:12:38;;;;;;;3.80;3.50;;;18.90;99.90;;;;;;5034422;28;20396;-50
2021/06/24 03:15:07;;;;;;;3.50;3.20;;;18.80;99.90;;;;;;5034272;28;20441;-49
2021/06/24 03:17:36;;;;;;;3.33;3.03;;;18.80;99.90;;;;;;5033820;28;20258;-53
2021/06/24 03:20:08;;;;;;;3.30;2.90;;;18.80;99.90;;;;;;5033915;28;20836;-53
2021/06/24 03:22:34;;;;;;;6.37;3.70;;;18.90;99.90;;;;;;5033080;28;20978;-54
2021/06/24 03:25:02;;;;;;;4.93;4.20;;;18.90;99.90;;;;;;5033541;28;20782;-52
2021/06/24 03:27:28;;;;;;;4.97;4.57;;;18.90;99.90;;;;;;5033363;28;20426;-53
2021/06/24 03:29:54;;;;;;;4.57;4.17;;;18.80;99.90;;;;;;5033096;28;20405;-54
2021/06/24 03:32:19;;;;;;;5.97;5.43;;;18.70;99.90;;;;;;5038690;28;20392;-51
2021/06/24 03:34:45;;;;;;;5.23;4.83;;;18.70;99.90;;;;;;5053603;28;20186;-54
2021/06/24 03:37:10;;;;;;;6.90;4.97;;;18.70;99.90;;;;;;5053585;28;20198;-54
2021/06/24 03:39:36;;;;;;;4.80;4.30;;;18.80;99.90;;;;;;5032957;28;20257;-54
2021/06/24 03:42:02;;;;;;;5.37;4.97;;;18.90;99.90;;;;;;5033013;28;20305;-54
2021/06/24 03:44:28;;;;;;;5.20;4.50;;;19.00;99.90;;;;;;5050197;28;20174;-54
2021/06/24 03:46:53;;;;;;;4.30;4.00;;;18.90;99.90;;;;;;5053270;28;20409;-52
2021/06/24 03:49:19;;;;;;;4.93;4.50;;;19.00;99.90;;;;;;5052841;28;20190;-54
2021/06/24 03:51:44;;;;;;;4.63;4.23;;;18.90;99.90;;;;;;5052688;28;20198;-51
2021/06/24 03:54:10;;;;;;;4.20;3.80;;;19.00;99.90;;;;;;5052483;28;20640;-53
2021/06/24 03:56:36;;;;;;;5.03;4.57;;;18.90;99.90;;;;;;5052912;28;20167;-54
2021/06/24 03:59:02;;;;;;;5.27;4.83;;;18.90;99.90;;;;;;5052710;28;20214;-54
2021/06/24 04:01:29;;;;;;;4.47;4.03;;;19.00;99.90;;;;;;5052844;28;20655;-54
2021/06/24 04:03:54;;;;;;;4.03;3.63;;;19.10;99.90;;;;;;5053151;28;20221;-55
2021/06/24 04:06:20;;;;;;;8.97;4.00;;;19.20;99.90;;;;;;5053135;28;20412;-51
2021/06/24 04:08:45;;;;;;;4.63;3.97;;;19.30;99.90;;;;;;5040733;28;20218;-54
2021/06/24 04:11:11;;;;;;;4.17;3.87;;;19.20;99.90;;;;;;5036881;28;20176;-55
2021/06/24 04:13:37;;;;;;;4.10;3.70;;;19.30;99.90;;;;;;5036723;28;20194;-55
2021/06/24 04:16:06;;;;;;;4.20;3.80;;;19.40;99.90;;;;;;5036813;28;20167;-55
2021/06/24 04:18:32;;;;;;;3.23;3.00;;;19.40;99.90;;;;;;5036865;28;20462;-54
2021/06/24 04:20:57;;;;;;;3.73;3.50;;;19.50;99.90;;;;;;5036893;28;20425;-53
2021/06/24 04:23:23;;;;;;;4.70;4.20;;;19.50;99.90;;;;;;5036161;28;20929;-55
2021/06/24 04:25:49;;;;;;;3.87;3.57;;;19.50;99.90;;;;;;5036512;28;20511;-54
2021/06/24 04:28:14;;;;;;;4.13;3.73;;;19.60;99.90;;;;;;5036443;28;20183;-55
2021/06/24 04:30:40;;;;;;;4.40;4.00;;;19.50;99.90;;;;;;5036416;28;20204;-51
2021/06/24 04:33:06;;;;;;;4.20;3.90;;;19.50;99.90;;;;;;5036537;28;20205;-54
2021/06/24 04:35:32;;;;;;;3.77;3.47;;;19.60;99.90;;;;;;5036449;28;20160;-55
2021/06/24 04:37:59;;;;;;;4.73;4.33;;;19.60;99.90;;;;;;5038898;28;20230;-54
2021/06/24 04:40:25;;;;;;;4.27;3.97;;;19.50;99.90;;;;;;5036869;28;20420;-54
2021/06/24 04:42:51;;;;;;;4.30;3.90;;;19.60;99.90;;;;;;5036390;28;20974;-54
2021/06/24 04:45:17;;;;;;;4.80;4.40;;;19.50;99.90;;;;;;5036708;28;20406;-52
2021/06/24 04:47:43;;;;;;;4.67;4.30;;;19.70;99.90;;;;;;5036113;28;20184;-54
2021/06/24 04:50:10;;;;;;;3.93;3.53;;;19.80;99.90;;;;;;5036126;28;20943;-51
2021/06/24 04:52:35;;;;;;;5.03;3.83;;;19.90;99.90;;;;;;5035456;28;20600;-53
2021/06/24 04:55:01;;;;;;;4.07;3.77;;;20.00;99.90;;;;;;5036229;28;20406;-54
2021/06/24 04:57:27;;;;;;;3.60;3.30;;;20.10;99.90;;;;;;5036349;28;20226;-54
2021/06/24 04:59:52;;;;;;;4.17;2.93;;;20.20;99.90;;;;;;5036440;28;20202;-54
2021/06/24 05:02:18;;;;;;;2.77;2.57;;;20.20;99.90;;;;;;5036147;28;20167;-55
2021/06/24 05:04:44;;;;;;;3.80;2.63;;;20.40;99.90;;;;;;5035903;28;20227;-55
2021/06/24 05:07:10;;;;;;;3.90;3.60;;;20.50;99.90;;;;;;5035909;28;20174;-55
2021/06/24 05:09:40;;;;;;;3.63;3.00;;;20.40;99.90;;;;;;5035773;28;20208;-56
2021/06/24 05:12:07;;;;;;;3.40;3.10;;;20.50;99.90;;;;;;5036236;28;20945;-52
2021/06/24 05:14:33;;;;;;;3.70;3.40;;;20.30;99.90;;;;;;5035639;28;20524;-55
2021/06/24 05:16:59;;;;;;;3.47;3.10;;;20.40;99.90;;;;;;5036011;28;20445;-56
2021/06/24 05:19:26;;;;;;;3.00;2.80;;;20.50;99.90;;;;;;5036116;28;20422;-52
2021/06/24 05:21:51;;;;;;;3.10;2.90;;;20.50;99.90;;;;;;5036466;28;20250;-53
2021/06/24 05:24:17;;;;;;;3.10;2.80;;;20.50;99.90;;;;;;5036190;28;20457;-51
2021/06/24 05:26:43;;;;;;;3.20;3.00;;;20.80;99.90;;;;;;5036690;28;20531;-53
2021/06/24 05:29:08;;;;;;;2.63;2.43;;;21.10;99.90;;;;;;5036007;28;20237;-53
2021/06/24 05:31:36;;;;;;;3.23;2.93;;;20.80;99.90;;;;;;5036017;28;20186;-55
2021/06/24 05:34:04;;;;;;;2.90;2.70;;;20.80;99.90;;;;;;5035548;28;20203;-56
2021/06/24 05:36:31;;;;;;;2.60;2.40;;;20.70;99.90;;;;;;5035881;28;20413;-52
2021/06/24 05:38:57;;;;;;;6.10;3.50;;;20.80;99.90;;;;;;5031708;28;20448;-55
2021/06/24 05:41:23;;;;;;;6.23;4.07;;;21.00;99.90;;;;;;5058076;28;20416;-55
2021/06/24 05:43:49;;;;;;;6.20;4.80;;;21.10;99.90;;;;;;5055566;28;20405;-56
2021/06/24 05:46:14;;;;;;;4.50;3.80;;;21.10;99.90;;;;;;5055329;28;20175;-56
2021/06/24 05:48:40;;;;;;;3.50;3.20;;;21.10;99.90;;;;;;5055060;28;20190;-54
2021/06/24 05:51:06;;;;;;;3.37;3.10;;;21.10;99.90;;;;;;5055117;28;20546;-56
2021/06/24 05:53:31;;;;;;;3.20;2.97;;;21.10;99.90;;;;;;5054479;28;20549;-56
2021/06/24 05:55:58;;;;;;;3.90;3.50;;;21.00;99.90;;;;;;5055329;28;20174;-54
2021/06/24 05:58:25;;;;;;;3.87;3.57;;;21.00;99.90;;;;;;5055049;28;20187;-56
2021/06/24 06:00:55;;;;;;;5.50;3.13;;;20.80;99.90;;;;;;5055516;28;20404;-56
2021/06/24 06:03:21;;;;;;;3.87;3.50;;;20.70;99.90;;;;;;5055115;28;20401;-56
2021/06/24 06:05:51;;;;;;;4.20;3.70;;;20.70;99.90;;;;;;5055201;28;20424;-54
2021/06/24 06:08:17;;;;;;;3.70;3.40;;;20.80;99.90;;;;;;5045488;28;20519;-56
2021/06/24 06:10:44;;;;;;;6.30;4.40;;;21.00;99.90;;;;;;5035535;28;20472;-56
2021/06/24 06:13:10;;;;;;;4.90;4.40;;;21.00;99.90;;;;;;5035216;28;21019;-56
2021/06/24 06:15:40;;;;;;;4.83;4.33;;;21.00;99.90;;;;;;5034690;28;20532;-50
2021/06/24 06:18:17;;;;;;;5.10;4.50;;;21.00;99.90;;;;;;5035294;28;20437;-56
2021/06/24 06:20:44;;;;;;;3.50;3.20;;;21.10;99.90;;;;;;5034947;28;20471;-51
2021/06/24 06:23:10;;;;;;;4.23;3.93;;;21.10;99.90;;;;;;5034983;28;20406;-53
2021/06/24 06:25:36;;;;;;;5.20;3.43;;;21.10;99.90;;;;;;5035227;28;20873;-53
2021/06/24 06:28:02;;;;;;;3.17;2.87;;;21.10;99.90;;;;;;5035805;28;20429;-53
2021/06/24 06:30:28;;;;;;;3.17;2.83;;;21.00;99.90;;;;;;5035293;28;20172;-55
2021/06/24 06:32:54;;;;;;;3.40;3.20;;;21.10;99.90;;;;;;5035192;28;20282;-54
2021/06/24 06:35:20;;;;;;;4.57;4.00;;;21.20;99.90;;;;;;5037751;28;20436;-54
2021/06/24 06:37:46;;;;;;;3.70;3.30;;;21.10;99.90;;;;;;5045364;28;20505;-56
2021/06/24 06:40:12;;;;;;;4.10;3.70;;;21.20;99.90;;;;;;5034195;28;20167;-54
2021/06/24 06:42:39;;;;;;;3.50;3.20;;;21.40;99.90;;;;;;5030025;28;20522;-56
2021/06/24 06:45:06;;;;;;;4.17;3.87;;;21.40;99.90;;;;;;5053914;28;20412;-54
2021/06/24 06:47:32;;;;;;;5.30;4.30;;;21.30;99.90;;;;;;5053642;28;20443;-56
2021/06/24 06:49:57;;;;;;;4.80;4.40;;;21.30;99.90;;;;;;5053572;28;20480;-56
2021/06/24 06:52:23;;;;;;;5.10;4.70;;;21.20;99.90;;;;;;5053413;28;20932;-56
2021/06/24 06:54:49;;;;;;;4.30;4.00;;;21.00;99.90;;;;;;5053257;28;20233;-55
2021/06/24 06:57:16;;;;;;;5.37;4.97;;;21.20;99.90;;;;;;5053664;28;20167;-56
2021/06/24 06:59:41;;;;;;;4.07;3.77;;;21.40;99.90;;;;;;5053682;28;20166;-57
2021/06/24 07:02:10;;;;;;;5.70;4.23;;;21.20;99.90;;;;;;5053480;28;20408;-57
2021/06/24 07:04:36;;;;;;;3.90;3.60;;;21.30;99.90;;;;;;5053585;28;20175;-57
2021/06/24 07:07:02;;;;;;;4.30;3.90;;;21.00;99.90;;;;;;5053334;28;20413;-58
2021/06/24 07:09:28;;;;;;;4.40;3.97;;;21.20;99.90;;;;;;5033983;28;20464;-54
2021/06/24 07:11:54;;;;;;;3.70;3.50;;;21.20;99.90;;;;;;5033832;28;20768;-57
2021/06/24 07:14:21;;;;;;;3.70;3.40;;;21.30;99.90;;;;;;5033283;28;20643;-57
2021/06/24 07:16:47;;;;;;;3.63;3.30;;;21.30;99.90;;;;;;5034138;28;20183;-59
2021/06/24 07:19:12;;;;;;;6.03;4.37;;;21.40;99.90;;;;;;5033316;28;20457;-58
2021/06/24 07:21:38;;;;;;;3.40;3.20;;;21.70;99.90;;;;;;5033070;28;20541;-59
2021/06/24 07:24:04;;;;;;;5.23;3.13;;;21.60;99.90;;;;;;5033458;28;20171;-58
2021/06/24 07:26:30;;;;;;;3.70;3.17;;;21.70;99.90;;;;;;5033308;28;20171;-59
2021/06/24 07:28:56;;;;;;;4.27;3.87;;;21.60;99.90;;;;;;5033555;28;20492;-59
2021/06/24 07:31:21;;;;;;;3.77;3.47;;;21.50;99.90;;;;;;5047581;28;20177;-59
2021/06/24 07:33:47;;;;;;;3.90;3.60;;;21.50;99.90;;;;;;5053474;28;20659;-54
2021/06/24 07:36:13;;;;;;;3.70;3.50;;;21.80;99.90;;;;;;5053848;28;20618;-58
2021/06/24 07:38:38;;;;;;;3.10;2.80;;;21.90;99.90;;;;;;5035191;28;20214;-58
2021/06/24 07:41:04;;;;;;;3.33;3.03;;;22.10;99.90;;;;;;5053717;28;20539;-58
2021/06/24 07:43:30;;;;;;;3.43;3.13;;;21.70;99.90;;;;;;5052613;28;20170;-59
2021/06/24 07:45:55;;;;;;;3.23;2.97;;;21.50;99.90;;;;;;5035329;28;20234;-58
2021/06/24 07:48:21;;;;;;;6.43;4.00;;;21.50;99.90;;;;;;5053025;28;20568;-59
2021/06/24 07:50:48;;;;;;;3.37;3.07;;;21.70;99.90;;;;;;5053067;28;20632;-59
2021/06/24 07:53:13;;;;;;;3.37;3.17;;;21.80;99.90;;;;;;5052490;28;20197;-57
2021/06/24 07:55:39;;;;;;;3.43;3.13;;;22.10;99.90;;;;;;5052843;28;20401;-59
2021/06/24 07:58:07;;;;;;;3.10;2.80;;;22.30;99.90;;;;;;5052821;28;20685;-59
2021/06/24 08:00:34;;;;;;;3.43;3.13;;;22.50;99.90;;;;;;5053667;28;20254;-59
2021/06/24 08:03:01;;;;;;;3.10;2.90;;;22.70;99.90;;;;;;5055603;28;20982;-58
2021/06/24 08:05:27;;;;;;;4.80;4.40;;;22.80;99.90;;;;;;5052580;28;20433;-59
2021/06/24 08:07:53;;;;;;;5.17;4.20;;;22.60;99.90;;;;;;5046577;28;20454;-59
2021/06/24 08:10:19;;;;;;;4.57;4.20;;;22.50;99.90;;;;;;5032414;28;20414;-59
2021/06/24 08:12:47;;;;;;;4.43;4.03;;;22.30;99.90;;;;;;5033549;28;20412;-59
2021/06/24 08:15:14;;;;;;;4.07;3.70;;;22.00;99.90;;;;;;5032875;28;20902;-59
2021/06/24 08:17:41;;;;;;;4.07;3.73;;;22.10;99.90;;;;;;5014816;28;20479;-58
2021/06/24 08:20:08;;;;;;;4.27;3.87;;;22.30;99.90;;;;;;5032635;28;20539;-59
2021/06/24 08:22:34;;;;;;;3.83;3.53;;;22.30;99.90;;;;;;5032401;28;20501;-58
2021/06/24 08:24:59;;;;;;;4.10;3.80;;;22.30;99.90;;;;;;5032439;28;20491;-58
2021/06/24 08:27:25;;;;;;;3.27;2.97;;;22.50;99.90;;;;;;5032566;28;20667;-58
2021/06/24 08:29:51;;;;;;;5.43;3.67;;;22.40;99.90;;;;;;5032705;28;20580;-59
2021/06/24 08:32:17;;;;;;;4.07;3.30;;;22.70;99.90;;;;;;5032809;28;20194;-58
2021/06/24 08:34:43;;;;;;;2.83;2.63;;;22.70;99.90;;;;;;5033357;28;20939;-58
2021/06/24 08:37:09;;;;;;;2.57;2.37;;;22.80;99.90;;;;;;5035760;28;20226;-58
2021/06/24 08:39:34;;;;;;;2.40;2.20;;;22.70;99.90;;;;;;5032555;28;20179;-59
2021/06/24 08:42:02;;;;;;;3.60;3.30;;;23.00;99.90;;;;;;5032460;28;20225;-58
2021/06/24 08:44:27;;;;;;;3.67;3.37;;;23.10;99.90;;;;;;5032655;28;20178;-59
2021/06/24 08:46:57;;;;;;;2.73;2.53;;;22.80;99.90;;;;;;5032432;28;20484;-56
2021/06/24 08:49:25;;;;;;;6.67;3.40;;;23.20;99.90;;;;;;5033171;28;20278;-59
2021/06/24 08:51:52;;;;;;;3.50;3.20;;;23.20;99.90;;;;;;5032190;28;20888;-59
2021/06/24 08:54:18;;;;;;;3.30;3.10;;;23.70;99.90;;;;;;5032756;28;20449;-59
2021/06/24 08:56:43;;;;;;;3.47;3.07;;;24.40;99.90;;;;;;5036481;28;20402;-59
2021/06/24 08:59:09;;;;;;;3.83;3.03;;;24.30;99.90;;;;;;5035808;28;20645;-58
2021/06/24 09:01:51;;;;;;;3.37;3.10;;;24.30;99.90;;;;;;5035852;28;20168;-59
2021/06/24 09:04:19;;;;;;;4.20;3.60;;;24.40;99.90;;;;;;5036405;28;20244;-59
2021/06/24 09:06:45;;;;;;;5.10;3.50;;;24.00;99.90;;;;;;5035714;28;20402;-59
2021/06/24 09:09:22;;;;;;;5.00;3.00;;;23.70;99.90;;;;;;5070281;23;20897;-56
2021/06/24 09:11:48;;;;;;;2.93;2.73;;;23.50;99.90;;;;;;5055770;28;20388;-56
2021/06/24 09:14:16;;;;;;;3.77;3.23;;;23.60;99.90;;;;;;5055716;28;20445;-56
2021/06/24 09:16:44;;;;;;;3.40;2.57;;;23.40;99.90;;;;;;5055750;28;20174;-53
2021/06/24 09:19:14;;;;;;;2.90;2.70;;;23.30;99.90;;;;;;5037534;28;20440;-55
2021/06/24 09:21:40;;;;;;;3.30;3.10;;;23.00;99.90;;;;;;5055225;28;20402;-53
2021/06/24 09:24:20;;;;;;;3.03;2.83;;;23.10;99.90;;;;;;5055443;28;20415;-57
2021/06/24 09:26:46;;;;;;;3.30;3.00;;;23.10;99.90;;;;;;5055776;28;20159;-56
2021/06/24 09:29:16;;;;;;;4.00;3.10;;;23.10;99.90;;;;;;5055363;28;20425;-55
2021/06/24 09:31:43;;;;;;;5.30;3.03;;;23.50;99.90;;;;;;5055043;28;20625;-56
2021/06/24 09:34:10;;;;;;;3.17;2.90;;;23.50;99.90;;;;;;5072797;28;20440;-57
2021/06/24 09:36:37;;;;;;;3.20;2.90;;;23.60;99.90;;;;;;5074703;28;20411;-53
2021/06/24 09:39:25;;;;;;;3.47;3.17;;;23.60;99.90;;;;;;5063575;28;20519;-54
2021/06/24 09:42:02;;;;;;;5.23;4.03;;;23.30;99.90;;;;;;5055049;28;20382;-56
2021/06/24 09:44:29;;;;;;;8.83;8.13;;;22.90;99.90;;;;;;5055048;28;20412;-56
2021/06/24 09:46:56;;;;;;;3.43;3.07;;;22.90;99.90;;;;;;5054589;28;20925;-56
2021/06/24 09:49:29;;;;;;;5.50;3.83;;;23.00;99.90;;;;;;5054886;28;20453;-52
2021/06/24 09:51:57;;;;;;;3.57;3.20;;;23.00;99.90;;;;;;5054776;28;20732;-56
2021/06/24 09:54:34;;;;;;;5.70;3.70;;;23.30;99.90;;;;;;5054599;28;20739;-53
2021/06/24 09:57:03;;;;;;;4.50;3.40;;;23.40;99.90;;;;;;5054839;28;20409;-56
2021/06/24 09:59:39;;;;;;;3.90;3.60;;;23.50;99.90;;;;;;5054673;28;20528;-56
2021/06/24 10:02:10;;;;;;;4.97;3.50;;;23.70;99.90;;;;;;5054732;28;20881;-51
2021/06/24 10:04:41;;;;;;;4.10;3.80;;;23.70;99.90;;;;;;5054756;28;20764;-51
2021/06/24 10:07:10;;;;;;;3.90;3.60;;;23.80;99.90;;;;;;5053483;28;20452;-52
2021/06/24 10:09:40;;;;;;;3.03;2.73;;;24.30;99.90;;;;;;5053964;28;20506;-52
2021/06/24 10:12:14;;;;;;;5.00;4.07;;;24.60;99.90;;;;;;5054232;28;20414;-56
2021/06/24 10:14:41;;;;;;;3.03;2.73;;;24.60;99.90;;;;;;5054474;28;20436;-56
2021/06/24 10:17:07;;;;;;;3.10;2.80;;;24.80;99.90;;;;;;5054389;28;20405;-56
2021/06/24 10:19:36;;;;;;;3.13;2.77;;;25.00;99.90;;;;;;5054382;28;20795;-53
2021/06/24 10:22:13;;;;;;;3.40;2.97;;;24.60;99.90;;;;;;5054278;28;20890;-57
2021/06/24 10:24:48;;;;;;;2.20;2.10;;;24.20;99.90;;;;;;5035823;28;20404;-56
2021/06/24 10:27:14;;;;;;;3.50;2.90;;;24.20;99.90;;;;;;5054189;28;20925;-57
2021/06/24 10:29:43;;;;;;;3.13;2.57;;;24.50;99.90;;;;;;5054019;28;20421;-54
2021/06/24 10:32:32;;;;;;;3.27;2.63;;;24.40;99.90;;;;;;5036230;28;20413;-56
2021/06/24 10:35:00;;;;;;;2.90;2.50;;;24.70;99.90;;;;;;5054048;28;20445;-57
2021/06/24 10:37:28;;;;;;;2.50;2.30;;;24.50;99.90;;;;;;5071287;28;20404;-57
2021/06/24 10:40:01;;;;;;;3.00;2.43;;;24.70;99.90;;;;;;5055735;28;20429;-57
2021/06/24 10:42:28;;;;;;;5.63;2.07;;;25.00;99.90;;;;;;5067408;28;20408;-53
2021/06/24 10:45:01;;;;;;;2.10;1.90;;;25.40;99.90;;;;;;5074100;28;20830;-56
2021/06/24 10:47:30;;;;;;;2.17;2.07;;;25.50;99.90;;;;;;5073970;28;20408;-56
2021/06/24 10:50:33;;;;;;;4.80;1.73;;;25.20;99.90;;;;;;5074161;28;20507;-56
2021/06/24 10:53:09;;;;;;;2.37;2.20;;;25.30;99.90;;;;;;5073419;28;20487;-56
2021/06/24 10:55:42;;;;;;;6.10;2.60;;;25.40;99.90;;;;;;5074068;28;20427;-56
2021/06/24 10:58:30;;;;;;;3.83;1.90;;;25.10;99.90;;;;;;5073506;28;20424;-56
2021/06/24 11:00:59;;;;;;;4.50;2.03;;;25.30;99.90;;;;;;5058220;28;20413;-57
2021/06/24 11:03:25;;;;;;;4.73;2.23;;;25.20;99.90;;;;;;5073757;28;20483;-56
2021/06/24 11:05:52;;;;;;;3.57;1.73;;;25.20;99.90;;;;;;5073263;28;20439;-56
2021/06/24 11:08:29;;;;;;;2.50;1.77;;;25.20;99.90;;;;;;5068152;28;20311;-55
2021/06/24 11:11:01;;;;;;;1.67;1.57;;;25.30;99.90;;;;;;5053301;28;20411;-55
2021/06/24 11:13:42;;;;;;;2.73;2.53;;;25.40;99.90;;;;;;5053566;28;20479;-56
2021/06/24 11:16:18;;;;;;;1.93;1.83;;;25.70;99.90;;;;;;5053234;28;20862;-55
2021/06/24 11:18:50;;;;;;;2.00;1.90;;;25.90;99.90;;;;;;5053186;28;20424;-53
2021/06/24 11:21:24;;;;;;;2.30;1.70;;;26.50;99.90;;;;;;5053343;28;20572;-57
2021/06/24 11:23:55;;;;;;;2.30;1.80;;;26.50;99.90;;;;;;5052523;28;20389;-56
2021/06/24 11:26:29;;;;;;;1.30;1.20;;;26.60;99.90;;;;;;5053371;28;20881;-54
2021/06/24 11:29:04;;;;;;;1.60;1.50;;;26.40;99.90;;;;;;5053238;28;20429;-55
2021/06/24 11:31:37;;;;;;;1.73;1.63;;;26.40;99.90;;;;;;5069536;28;21004;-57
2021/06/24 11:36:30;;;;;;;1.40;1.30;;;27.30;99.90;;;;;;5072847;28;20459;-57
2021/06/24 11:38:56;;;;;;;1.70;1.60;;;27.60;99.60;;;;;;5069869;28;21000;-57
2021/06/24 11:41:23;;;;;;;1.80;1.60;;;28.60;98.40;;;;;;5053189;28;20185;-57
2021/06/24 11:44:06;;;;;;;1.70;1.60;;;28.20;97.30;;;;;;5034953;28;20186;-55
2021/06/24 11:46:34;;;;;;;2.50;1.80;;;27.90;97.30;;;;;;5052941;28;20408;-57
2021/06/24 12:05:06;;;;;;;1.50;1.40;;;28.10;94.40;;;;;;5052888;28;20420;-53
2021/06/24 12:07:37;;;;;;;1.50;1.40;;;27.80;97.00;;;;;;5052084;28;20465;-53
2021/06/24 12:10:05;;;;;;;1.67;1.57;;;27.20;96.90;;;;;;5051490;28;20456;-54
2021/06/24 12:12:32;;;;;;;1.93;1.67;;;27.00;97.10;;;;;;5052664;28;20405;-55
2021/06/24 12:15:02;;;;;;;1.70;1.57;;;26.60;97.10;;;;;;5052661;28;20452;-56
2021/06/24 12:17:36;;;;;;;1.47;1.37;;;26.20;98.30;;;;;;5052864;28;20774;-54
2021/06/24 12:20:04;;;;;;;4.40;1.80;;;26.00;99.20;;;;;;5053225;28;20469;-56
2021/06/24 12:22:37;;;;;;;1.10;1.00;;;26.10;98.60;;;;;;5070399;28;20459;-53
2021/06/24 12:25:12;;;;;;;1.30;1.20;;;26.30;97.90;;;;;;5072537;28;20417;-56
2021/06/24 12:27:45;;;;;;;1.37;1.27;;;26.90;97.80;;;;;;5072472;28;20408;-54
2021/06/24 12:30:13;;;;;;;1.20;1.10;;;27.20;96.80;;;;;;5074610;28;20955;-56
2021/06/24 12:32:52;;;;;;;1.83;1.10;;;27.90;96.70;;;;;;5076135;28;20408;-57
2021/06/24 12:35:21;;;;;;;1.23;1.13;;;28.00;95.60;;;;;;5076507;28;20434;-57
2021/06/24 12:37:50;;;;;;;1.13;1.03;;;27.90;96.70;;;;;;5075801;28;20452;-57
2021/06/24 12:40:17;;;;;;;1.40;1.10;;;27.90;94.20;;;;;;5075362;28;20404;-55
2021/06/24 12:42:50;;;;;;;1.67;1.00;;;27.40;94.30;;;;;;5075952;28;20388;-54
2021/06/24 12:45:17;;;;;;;2.13;1.20;;;27.10;93.80;;;;;;5075906;28;20800;-53
2021/06/24 12:47:45;;;;;;;1.00;0.87;;;27.90;94.50;;;;;;5076875;28;20396;-55
2021/06/24 12:50:13;;;;;;;1.47;0.80;;;29.30;91.60;;;;;;5075845;28;20411;-55
2021/06/24 12:53:08;;;;;;;1.00;0.77;;;31.50;89.00;;;;;;5075868;28;20396;-56
2021/06/24 12:55:44;;;;;;;1.13;1.03;;;32.50;80.50;;;;;;5072901;28;20417;-56
2021/06/24 12:58:21;;;;;;;0.80;0.73;;;33.70;73.20;;;;;;5075397;28;20439;-56
2021/06/24 13:00:59;;;;;;;0.90;0.80;;;33.10;75.50;;;;;;5075973;28;20427;-54
2021/06/24 13:03:36;;;;;;;1.07;0.70;;;32.70;74.70;;;;;;5075981;28;20422;-55
2021/06/24 13:06:09;;;;;;;1.20;0.80;;;32.80;77.30;;;;;;5075855;28;20392;-56
2021/06/24 13:08:35;;;;;;;0.90;0.80;;;33.60;71.40;;;;;;5074977;28;20440;-56
2021/06/24 13:11:12;;;;;;;1.27;0.67;;;33.40;70.40;;;;;;5060888;28;20397;-56